sensor_id;sensor_type;location;lat;lon;timestamp;P1;durP1;ratioP1;P2;durP2;ratioP2
3677;SDS011;1855;50.934;6.958;2023-05-03T00:01:49;7.10;;;6.40;;
3677;SDS011;1855;50.934;6.958;2023-05-03T00:04:17;7.50;;;6.80;;
3677;SDS011;1855;50.934;6.958;2023-05-03T00:06:44;7.78;;;6.13;;
3677;SDS011;1855;50.934;6.958;2023-05-03T00:09:10;9.30;;;6.20;;
3677;SDS011;1855;50.934;6.958;2023-05-03T00:11:38;8.60;;;5.80;;
3677;SDS011;1855;50.934;6.958;2023-05-03T00:14:05;7.78;;;6.20;;
3677;SDS011;1855;50.934;6.958;2023-05-03T00:16:31;7.65;;;6.55;;
3677;SDS011;1855;50.934;6.958;2023-05-03T00:18:59;6.45;;;5.95;;
3677;SDS011;1855;50.934;6.958;2023-05-03T00:21:27;7.10;;;6.10;;
3677;SDS011;1855;50.934;6.958;2023-05-03T00:23:54;8.20;;;6.32;;
3677;SDS011;1855;50.934;6.958;2023-05-03T00:26:20;10.95;;;6.80;;
3677;SDS011;1855;50.934;6.958;2023-05-03T00:28:47;7.95;;;5.70;;
3677;SDS011;1855;50.934;6.958;2023-05-03T00:31:14;7.50;;;6.10;;
3677;SDS011;1855;50.934;6.958;2023-05-03T00:33:41;7.35;;;5.97;;
3677;SDS011;1855;50.934;6.958;2023-05-03T00:36:08;7.82;;;5.30;;
3677;SDS011;1855;50.934;6.958;2023-05-03T00:38:36;6.82;;;5.80;;
3677;SDS011;1855;50.934;6.958;2023-05-03T00:41:04;7.25;;;6.55;;
3677;SDS011;1855;50.934;6.958;2023-05-03T00:43:31;6.50;;;5.72;;
3677;SDS011;1855;50.934;6.958;2023-05-03T00:45:59;7.90;;;5.77;;
3677;SDS011;1855;50.934;6.958;2023-05-03T00:48:27;7.30;;;5.90;;
3677;SDS011;1855;50.934;6.958;2023-05-03T00:50:55;6.97;;;5.80;;
3677;SDS011;1855;50.934;6.958;2023-05-03T00:53:23;6.93;;;6.00;;
3677;SDS011;1855;50.934;6.958;2023-05-03T00:55:52;5.95;;;5.35;;
3677;SDS011;1855;50.934;6.958;2023-05-03T00:58:20;7.55;;;5.60;;
3677;SDS011;1855;50.934;6.958;2023-05-03T01:00:47;6.18;;;5.57;;
3677;SDS011;1855;50.934;6.958;2023-05-03T01:03:14;7.05;;;5.85;;
3677;SDS011;1855;50.934;6.958;2023-05-03T01:05:43;8.20;;;6.20;;
3677;SDS011;1855;50.934;6.958;2023-05-03T01:08:18;9.70;;;6.70;;
3677;SDS011;1855;50.934;6.958;2023-05-03T01:10:54;6.20;;;5.60;;
3677;SDS011;1855;50.934;6.958;2023-05-03T01:13:28;7.07;;;5.90;;
3677;SDS011;1855;50.934;6.958;2023-05-03T01:16:08;6.80;;;5.70;;
3677;SDS011;1855;50.934;6.958;2023-05-03T01:18:39;6.25;;;5.35;;
3677;SDS011;1855;50.934;6.958;2023-05-03T01:21:10;6.25;;;5.43;;
3677;SDS011;1855;50.934;6.958;2023-05-03T01:23:42;8.32;;;5.85;;
3677;SDS011;1855;50.934;6.958;2023-05-03T01:26:20;7.60;;;5.50;;
3677;SDS011;1855;50.934;6.958;2023-05-03T01:28:48;6.85;;;5.93;;
3677;SDS011;1855;50.934;6.958;2023-05-03T01:31:16;7.25;;;5.90;;
3677;SDS011;1855;50.934;6.958;2023-05-03T01:33:48;6.70;;;6.10;;
3677;SDS011;1855;50.934;6.958;2023-05-03T01:36:27;6.90;;;5.63;;
3677;SDS011;1855;50.934;6.958;2023-05-03T01:38:57;6.50;;;5.45;;
3677;SDS011;1855;50.934;6.958;2023-05-03T01:41:27;6.75;;;5.97;;
3677;SDS011;1855;50.934;6.958;2023-05-03T01:43:55;6.65;;;6.05;;
3677;SDS011;1855;50.934;6.958;2023-05-03T01:46:22;6.45;;;5.30;;
3677;SDS011;1855;50.934;6.958;2023-05-03T01:48:49;6.40;;;5.80;;
3677;SDS011;1855;50.934;6.958;2023-05-03T01:51:15;6.85;;;5.20;;
3677;SDS011;1855;50.934;6.958;2023-05-03T01:53:42;8.25;;;5.45;;
3677;SDS011;1855;50.934;6.958;2023-05-03T01:56:09;7.45;;;6.07;;
3677;SDS011;1855;50.934;6.958;2023-05-03T01:58:37;6.90;;;6.00;;
3677;SDS011;1855;50.934;6.958;2023-05-03T02:01:04;6.13;;;5.53;;
3677;SDS011;1855;50.934;6.958;2023-05-03T02:03:32;7.85;;;5.80;;
3677;SDS011;1855;50.934;6.958;2023-05-03T02:05:59;6.10;;;5.50;;
3677;SDS011;1855;50.934;6.958;2023-05-03T02:08:25;6.45;;;5.85;;
3677;SDS011;1855;50.934;6.958;2023-05-03T02:10:52;6.20;;;5.57;;
3677;SDS011;1855;50.934;6.958;2023-05-03T02:13:19;5.93;;;5.33;;
3677;SDS011;1855;50.934;6.958;2023-05-03T02:15:47;7.38;;;6.28;;
3677;SDS011;1855;50.934;6.958;2023-05-03T02:18:13;5.95;;;5.45;;
3677;SDS011;1855;50.934;6.958;2023-05-03T02:20:43;6.10;;;5.50;;
3677;SDS011;1855;50.934;6.958;2023-05-03T02:23:10;6.88;;;5.63;;
3677;SDS011;1855;50.934;6.958;2023-05-03T02:25:37;6.75;;;5.60;;
3677;SDS011;1855;50.934;6.958;2023-05-03T02:28:04;6.35;;;5.40;;
3677;SDS011;1855;50.934;6.958;2023-05-03T02:30:31;6.20;;;5.43;;
3677;SDS011;1855;50.934;6.958;2023-05-03T02:32:59;6.50;;;5.80;;
3677;SDS011;1855;50.934;6.958;2023-05-03T02:35:26;6.65;;;5.88;;
3677;SDS011;1855;50.934;6.958;2023-05-03T02:37:53;6.60;;;5.80;;
3677;SDS011;1855;50.934;6.958;2023-05-03T02:40:19;6.53;;;5.82;;
3677;SDS011;1855;50.934;6.958;2023-05-03T02:42:46;6.80;;;6.10;;
3677;SDS011;1855;50.934;6.958;2023-05-03T02:45:13;8.63;;;5.90;;
3677;SDS011;1855;50.934;6.958;2023-05-03T02:47:40;6.53;;;5.63;;
3677;SDS011;1855;50.934;6.958;2023-05-03T02:50:08;6.32;;;5.72;;
3677;SDS011;1855;50.934;6.958;2023-05-03T02:52:35;7.10;;;6.40;;
3677;SDS011;1855;50.934;6.958;2023-05-03T02:55:02;7.10;;;5.85;;
3677;SDS011;1855;50.934;6.958;2023-05-03T02:57:29;7.30;;;6.07;;
3677;SDS011;1855;50.934;6.958;2023-05-03T02:59:56;7.70;;;6.20;;
3677;SDS011;1855;50.934;6.958;2023-05-03T03:02:23;6.55;;;5.95;;
3677;SDS011;1855;50.934;6.958;2023-05-03T03:04:50;6.80;;;5.80;;
3677;SDS011;1855;50.934;6.958;2023-05-03T03:07:18;6.60;;;6.00;;
3677;SDS011;1855;50.934;6.958;2023-05-03T03:09:45;7.28;;;6.32;;
3677;SDS011;1855;50.934;6.958;2023-05-03T03:12:12;6.82;;;6.13;;
3677;SDS011;1855;50.934;6.958;2023-05-03T03:14:38;6.75;;;6.15;;
3677;SDS011;1855;50.934;6.958;2023-05-03T03:17:06;7.40;;;6.20;;
3677;SDS011;1855;50.934;6.958;2023-05-03T03:19:33;6.50;;;5.90;;
3677;SDS011;1855;50.934;6.958;2023-05-03T03:22:00;7.93;;;6.97;;
3677;SDS011;1855;50.934;6.958;2023-05-03T03:24:28;6.65;;;5.97;;
3677;SDS011;1855;50.934;6.958;2023-05-03T03:26:55;7.10;;;6.00;;
3677;SDS011;1855;50.934;6.958;2023-05-03T03:29:22;7.75;;;6.30;;
3677;SDS011;1855;50.934;6.958;2023-05-03T03:31:49;8.55;;;6.72;;
3677;SDS011;1855;50.934;6.958;2023-05-03T03:34:16;7.22;;;6.30;;
3677;SDS011;1855;50.934;6.958;2023-05-03T03:36:42;7.93;;;6.68;;
3677;SDS011;1855;50.934;6.958;2023-05-03T03:39:09;8.20;;;6.90;;
3677;SDS011;1855;50.934;6.958;2023-05-03T03:41:38;7.38;;;6.43;;
3677;SDS011;1855;50.934;6.958;2023-05-03T03:44:05;7.40;;;6.70;;
3677;SDS011;1855;50.934;6.958;2023-05-03T03:46:31;6.65;;;6.05;;
3677;SDS011;1855;50.934;6.958;2023-05-03T03:48:58;7.50;;;6.70;;
3677;SDS011;1855;50.934;6.958;2023-05-03T03:51:25;6.90;;;6.20;;
3677;SDS011;1855;50.934;6.958;2023-05-03T03:53:51;7.72;;;6.15;;
3677;SDS011;1855;50.934;6.958;2023-05-03T03:56:18;7.22;;;6.47;;
3677;SDS011;1855;50.934;6.958;2023-05-03T03:58:47;7.47;;;6.70;;
3677;SDS011;1855;50.934;6.958;2023-05-03T04:01:13;8.10;;;6.72;;
3677;SDS011;1855;50.934;6.958;2023-05-03T04:03:40;7.10;;;6.50;;
3677;SDS011;1855;50.934;6.958;2023-05-03T04:06:10;8.10;;;6.50;;
3677;SDS011;1855;50.934;6.958;2023-05-03T04:08:36;7.10;;;6.50;;
3677;SDS011;1855;50.934;6.958;2023-05-03T04:11:03;8.90;;;6.45;;
3677;SDS011;1855;50.934;6.958;2023-05-03T04:13:35;7.25;;;6.60;;
3677;SDS011;1855;50.934;6.958;2023-05-03T04:16:04;8.65;;;7.07;;
3677;SDS011;1855;50.934;6.958;2023-05-03T04:18:31;7.93;;;6.65;;
3677;SDS011;1855;50.934;6.958;2023-05-03T04:20:58;8.60;;;7.18;;
3677;SDS011;1855;50.934;6.958;2023-05-03T04:23:24;8.10;;;7.00;;
3677;SDS011;1855;50.934;6.958;2023-05-03T04:25:51;7.50;;;6.70;;
3677;SDS011;1855;50.934;6.958;2023-05-03T04:28:18;8.82;;;7.93;;
3677;SDS011;1855;50.934;6.958;2023-05-03T04:30:44;8.73;;;7.50;;
3677;SDS011;1855;50.934;6.958;2023-05-03T04:33:14;8.70;;;7.43;;
3677;SDS011;1855;50.934;6.958;2023-05-03T04:35:41;8.15;;;7.25;;
3677;SDS011;1855;50.934;6.958;2023-05-03T04:38:08;8.30;;;7.50;;
3677;SDS011;1855;50.934;6.958;2023-05-03T04:40:35;8.60;;;7.70;;
3677;SDS011;1855;50.934;6.958;2023-05-03T04:43:01;8.95;;;8.05;;
3677;SDS011;1855;50.934;6.958;2023-05-03T04:45:29;8.95;;;7.90;;
3677;SDS011;1855;50.934;6.958;2023-05-03T04:47:56;9.57;;;7.93;;
3677;SDS011;1855;50.934;6.958;2023-05-03T04:50:24;12.00;;;8.93;;
3677;SDS011;1855;50.934;6.958;2023-05-03T04:52:51;9.77;;;8.50;;
3677;SDS011;1855;50.934;6.958;2023-05-03T04:55:17;10.77;;;9.10;;
3677;SDS011;1855;50.934;6.958;2023-05-03T04:57:44;12.10;;;10.20;;
3677;SDS011;1855;50.934;6.958;2023-05-03T05:00:11;12.95;;;10.60;;
3677;SDS011;1855;50.934;6.958;2023-05-03T05:02:38;12.80;;;10.38;;
3677;SDS011;1855;50.934;6.958;2023-05-03T05:05:06;13.43;;;10.23;;
3677;SDS011;1855;50.934;6.958;2023-05-03T05:07:35;13.20;;;10.77;;
3677;SDS011;1855;50.934;6.958;2023-05-03T05:10:02;15.70;;;10.75;;
3677;SDS011;1855;50.934;6.958;2023-05-03T05:12:29;13.35;;;10.30;;
3677;SDS011;1855;50.934;6.958;2023-05-03T05:14:56;11.15;;;9.95;;
3677;SDS011;1855;50.934;6.958;2023-05-03T05:17:23;11.40;;;8.80;;
3677;SDS011;1855;50.934;6.958;2023-05-03T05:19:50;11.70;;;8.90;;
3677;SDS011;1855;50.934;6.958;2023-05-03T05:22:18;12.65;;;9.43;;
3677;SDS011;1855;50.934;6.958;2023-05-03T05:24:46;13.13;;;9.85;;
3677;SDS011;1855;50.934;6.958;2023-05-03T05:27:13;10.73;;;9.50;;
3677;SDS011;1855;50.934;6.958;2023-05-03T05:29:39;11.75;;;8.70;;
3677;SDS011;1855;50.934;6.958;2023-05-03T05:32:06;11.65;;;8.40;;
3677;SDS011;1855;50.934;6.958;2023-05-03T05:34:33;9.38;;;7.28;;
3677;SDS011;1855;50.934;6.958;2023-05-03T05:37:00;8.07;;;7.30;;
3677;SDS011;1855;50.934;6.958;2023-05-03T05:39:28;11.38;;;9.60;;
3677;SDS011;1855;50.934;6.958;2023-05-03T05:41:56;12.10;;;9.20;;
3677;SDS011;1855;50.934;6.958;2023-05-03T05:44:22;9.77;;;8.73;;
3677;SDS011;1855;50.934;6.958;2023-05-03T05:46:49;9.10;;;8.20;;
3677;SDS011;1855;50.934;6.958;2023-05-03T05:49:16;9.88;;;7.88;;
3677;SDS011;1855;50.934;6.958;2023-05-03T05:51:43;8.70;;;7.70;;
3677;SDS011;1855;50.934;6.958;2023-05-03T05:54:09;10.25;;;8.10;;
3677;SDS011;1855;50.934;6.958;2023-05-03T05:56:37;10.93;;;7.50;;
3677;SDS011;1855;50.934;6.958;2023-05-03T05:59:05;8.15;;;7.35;;
3677;SDS011;1855;50.934;6.958;2023-05-03T06:01:31;8.25;;;7.45;;
3677;SDS011;1855;50.934;6.958;2023-05-03T06:03:58;8.93;;;8.05;;
3677;SDS011;1855;50.934;6.958;2023-05-03T06:06:25;8.68;;;7.80;;
3677;SDS011;1855;50.934;6.958;2023-05-03T06:08:52;9.40;;;8.20;;
3677;SDS011;1855;50.934;6.958;2023-05-03T06:11:20;9.67;;;8.07;;
3677;SDS011;1855;50.934;6.958;2023-05-03T06:13:46;9.60;;;8.60;;
3677;SDS011;1855;50.934;6.958;2023-05-03T06:16:14;8.30;;;7.50;;
3677;SDS011;1855;50.934;6.958;2023-05-03T06:18:41;9.40;;;8.13;;
3677;SDS011;1855;50.934;6.958;2023-05-03T06:21:08;9.18;;;7.70;;
3677;SDS011;1855;50.934;6.958;2023-05-03T06:23:35;9.82;;;8.93;;
3677;SDS011;1855;50.934;6.958;2023-05-03T06:26:03;10.00;;;7.30;;
3677;SDS011;1855;50.934;6.958;2023-05-03T06:28:30;9.65;;;7.60;;
3677;SDS011;1855;50.934;6.958;2023-05-03T06:30:57;9.55;;;7.60;;
3677;SDS011;1855;50.934;6.958;2023-05-03T06:33:25;9.20;;;7.70;;
3677;SDS011;1855;50.934;6.958;2023-05-03T06:35:51;8.20;;;7.40;;
3677;SDS011;1855;50.934;6.958;2023-05-03T06:38:18;7.50;;;6.80;;
3677;SDS011;1855;50.934;6.958;2023-05-03T06:40:45;7.65;;;6.70;;
3677;SDS011;1855;50.934;6.958;2023-05-03T06:43:12;7.57;;;6.88;;
3677;SDS011;1855;50.934;6.958;2023-05-03T06:45:40;8.35;;;6.95;;
3677;SDS011;1855;50.934;6.958;2023-05-03T06:48:08;8.00;;;6.57;;
3677;SDS011;1855;50.934;6.958;2023-05-03T06:50:36;8.00;;;6.97;;
3677;SDS011;1855;50.934;6.958;2023-05-03T06:53:03;8.67;;;7.60;;
3677;SDS011;1855;50.934;6.958;2023-05-03T06:55:30;7.50;;;6.60;;
3677;SDS011;1855;50.934;6.958;2023-05-03T06:57:57;7.50;;;6.70;;
3677;SDS011;1855;50.934;6.958;2023-05-03T07:00:24;7.95;;;6.55;;
3677;SDS011;1855;50.934;6.958;2023-05-03T07:02:51;7.88;;;6.55;;
3677;SDS011;1855;50.934;6.958;2023-05-03T07:05:18;7.25;;;6.03;;
3677;SDS011;1855;50.934;6.958;2023-05-03T07:07:46;7.13;;;6.00;;
3677;SDS011;1855;50.934;6.958;2023-05-03T07:10:13;7.78;;;6.20;;
3677;SDS011;1855;50.934;6.958;2023-05-03T07:12:39;6.72;;;6.05;;
3677;SDS011;1855;50.934;6.958;2023-05-03T07:15:07;9.90;;;6.43;;
3677;SDS011;1855;50.934;6.958;2023-05-03T07:17:34;5.72;;;5.05;;
3677;SDS011;1855;50.934;6.958;2023-05-03T07:20:01;5.90;;;5.30;;
3677;SDS011;1855;50.934;6.958;2023-05-03T07:22:28;6.80;;;5.30;;
3677;SDS011;1855;50.934;6.958;2023-05-03T07:24:56;5.10;;;4.60;;
3677;SDS011;1855;50.934;6.958;2023-05-03T07:27:23;5.50;;;5.00;;
3677;SDS011;1855;50.934;6.958;2023-05-03T07:29:50;6.30;;;5.10;;
3677;SDS011;1855;50.934;6.958;2023-05-03T07:32:17;6.90;;;5.10;;
3677;SDS011;1855;50.934;6.958;2023-05-03T07:34:45;5.68;;;5.18;;
3677;SDS011;1855;50.934;6.958;2023-05-03T07:37:12;5.30;;;4.80;;
3677;SDS011;1855;50.934;6.958;2023-05-03T07:39:40;5.88;;;5.00;;
3677;SDS011;1855;50.934;6.958;2023-05-03T07:42:08;5.10;;;4.40;;
3677;SDS011;1855;50.934;6.958;2023-05-03T07:44:34;5.07;;;4.43;;
3677;SDS011;1855;50.934;6.958;2023-05-03T07:47:01;5.32;;;4.78;;
3677;SDS011;1855;50.934;6.958;2023-05-03T07:49:28;5.20;;;4.70;;
3677;SDS011;1855;50.934;6.958;2023-05-03T07:51:59;5.15;;;4.68;;
3677;SDS011;1855;50.934;6.958;2023-05-03T07:54:26;5.78;;;5.03;;
3677;SDS011;1855;50.934;6.958;2023-05-03T07:56:52;6.40;;;5.43;;
3677;SDS011;1855;50.934;6.958;2023-05-03T07:59:20;5.73;;;4.60;;
3677;SDS011;1855;50.934;6.958;2023-05-03T08:01:47;4.95;;;4.53;;
3677;SDS011;1855;50.934;6.958;2023-05-03T08:04:14;4.90;;;4.40;;
3677;SDS011;1855;50.934;6.958;2023-05-03T08:06:41;4.70;;;4.30;;
3677;SDS011;1855;50.934;6.958;2023-05-03T08:09:07;5.03;;;4.53;;
3677;SDS011;1855;50.934;6.958;2023-05-03T08:11:35;6.50;;;5.13;;
3677;SDS011;1855;50.934;6.958;2023-05-03T08:14:02;5.10;;;4.60;;
3677;SDS011;1855;50.934;6.958;2023-05-03T08:16:30;6.55;;;4.68;;
3677;SDS011;1855;50.934;6.958;2023-05-03T08:18:57;5.07;;;4.45;;
3677;SDS011;1855;50.934;6.958;2023-05-03T08:21:23;4.90;;;4.40;;
3677;SDS011;1855;50.934;6.958;2023-05-03T08:23:52;6.05;;;5.00;;
3677;SDS011;1855;50.934;6.958;2023-05-03T08:26:20;6.15;;;4.70;;
3677;SDS011;1855;50.934;6.958;2023-05-03T08:28:48;6.97;;;4.47;;
3677;SDS011;1855;50.934;6.958;2023-05-03T08:31:15;5.60;;;4.60;;
3677;SDS011;1855;50.934;6.958;2023-05-03T08:33:43;5.57;;;4.10;;
3677;SDS011;1855;50.934;6.958;2023-05-03T08:36:10;6.60;;;4.70;;
3677;SDS011;1855;50.934;6.958;2023-05-03T08:38:36;4.97;;;4.57;;
3677;SDS011;1855;50.934;6.958;2023-05-03T08:41:09;4.90;;;4.45;;
3677;SDS011;1855;50.934;6.958;2023-05-03T08:43:43;4.50;;;4.10;;
3677;SDS011;1855;50.934;6.958;2023-05-03T08:46:10;4.20;;;3.80;;
3677;SDS011;1855;50.934;6.958;2023-05-03T08:48:38;4.90;;;4.40;;
3677;SDS011;1855;50.934;6.958;2023-05-03T08:51:06;4.95;;;4.35;;
3677;SDS011;1855;50.934;6.958;2023-05-03T08:53:35;4.40;;;4.00;;
3677;SDS011;1855;50.934;6.958;2023-05-03T08:56:04;5.07;;;4.30;;
3677;SDS011;1855;50.934;6.958;2023-05-03T08:58:33;4.95;;;4.45;;
3677;SDS011;1855;50.934;6.958;2023-05-03T09:01:02;5.20;;;4.45;;
3677;SDS011;1855;50.934;6.958;2023-05-03T09:03:30;5.13;;;4.53;;
3677;SDS011;1855;50.934;6.958;2023-05-03T09:05:57;4.80;;;4.20;;
3677;SDS011;1855;50.934;6.958;2023-05-03T09:08:27;4.97;;;4.10;;
3677;SDS011;1855;50.934;6.958;2023-05-03T09:10:54;4.43;;;4.00;;
3677;SDS011;1855;50.934;6.958;2023-05-03T09:13:21;4.20;;;3.80;;
3677;SDS011;1855;50.934;6.958;2023-05-03T09:15:56;4.30;;;3.90;;
3677;SDS011;1855;50.934;6.958;2023-05-03T09:18:23;5.00;;;4.15;;
3677;SDS011;1855;50.934;6.958;2023-05-03T09:20:51;4.22;;;3.72;;
3677;SDS011;1855;50.934;6.958;2023-05-03T09:23:18;4.80;;;4.38;;
3677;SDS011;1855;50.934;6.958;2023-05-03T09:25:56;5.68;;;3.90;;
3677;SDS011;1855;50.934;6.958;2023-05-03T09:28:23;4.50;;;3.70;;
3677;SDS011;1855;50.934;6.958;2023-05-03T09:31:02;4.13;;;3.60;;
3677;SDS011;1855;50.934;6.958;2023-05-03T09:33:30;5.22;;;3.50;;
3677;SDS011;1855;50.934;6.958;2023-05-03T09:35:57;4.50;;;3.75;;
3677;SDS011;1855;50.934;6.958;2023-05-03T09:38:25;4.18;;;3.78;;
3677;SDS011;1855;50.934;6.958;2023-05-03T09:40:53;3.90;;;3.50;;
3677;SDS011;1855;50.934;6.958;2023-05-03T09:43:21;4.10;;;3.40;;
3677;SDS011;1855;50.934;6.958;2023-05-03T09:45:48;3.45;;;2.95;;
3677;SDS011;1855;50.934;6.958;2023-05-03T09:48:14;4.05;;;3.60;;
3677;SDS011;1855;50.934;6.958;2023-05-03T09:50:43;3.50;;;3.20;;
3677;SDS011;1855;50.934;6.958;2023-05-03T09:53:09;4.13;;;3.50;;
3677;SDS011;1855;50.934;6.958;2023-05-03T09:55:38;3.70;;;3.40;;
3677;SDS011;1855;50.934;6.958;2023-05-03T09:58:06;6.38;;;4.13;;
3677;SDS011;1855;50.934;6.958;2023-05-03T10:00:39;4.30;;;3.70;;
3677;SDS011;1855;50.934;6.958;2023-05-03T10:03:08;4.28;;;3.85;;
3677;SDS011;1855;50.934;6.958;2023-05-03T10:05:39;4.78;;;4.28;;
3677;SDS011;1855;50.934;6.958;2023-05-03T10:08:11;5.63;;;3.80;;
3677;SDS011;1855;50.934;6.958;2023-05-03T10:10:44;3.95;;;3.55;;
3677;SDS011;1855;50.934;6.958;2023-05-03T10:13:15;4.50;;;4.00;;
3677;SDS011;1855;50.934;6.958;2023-05-03T10:15:43;3.90;;;3.17;;
3677;SDS011;1855;50.934;6.958;2023-05-03T10:18:12;4.15;;;3.47;;
3677;SDS011;1855;50.934;6.958;2023-05-03T10:20:43;3.42;;;3.13;;
3677;SDS011;1855;50.934;6.958;2023-05-03T10:23:16;5.40;;;3.40;;
3677;SDS011;1855;50.934;6.958;2023-05-03T10:28:40;3.22;;;2.92;;
3677;SDS011;1855;50.934;6.958;2023-05-03T10:34:19;4.28;;;3.10;;
3677;SDS011;1855;50.934;6.958;2023-05-03T10:36:47;4.53;;;3.25;;
3677;SDS011;1855;50.934;6.958;2023-05-03T10:39:16;3.20;;;2.90;;
3677;SDS011;1855;50.934;6.958;2023-05-03T10:41:55;4.68;;;3.40;;
3677;SDS011;1855;50.934;6.958;2023-05-03T10:44:24;4.63;;;4.20;;
3677;SDS011;1855;50.934;6.958;2023-05-03T10:46:52;3.55;;;2.80;;
3677;SDS011;1855;50.934;6.958;2023-05-03T10:49:21;3.70;;;3.40;;
3677;SDS011;1855;50.934;6.958;2023-05-03T10:51:50;3.30;;;3.00;;
3677;SDS011;1855;50.934;6.958;2023-05-03T10:54:17;4.03;;;3.17;;
3677;SDS011;1855;50.934;6.958;2023-05-03T10:56:51;3.53;;;3.00;;
3677;SDS011;1855;50.934;6.958;2023-05-03T10:59:20;3.97;;;2.80;;
3677;SDS011;1855;50.934;6.958;2023-05-03T11:01:48;4.90;;;2.90;;
3677;SDS011;1855;50.934;6.958;2023-05-03T11:04:24;4.53;;;3.00;;
3677;SDS011;1855;50.934;6.958;2023-05-03T11:07:00;3.33;;;2.50;;
3677;SDS011;1855;50.934;6.958;2023-05-03T11:09:29;3.47;;;2.70;;
3677;SDS011;1855;50.934;6.958;2023-05-03T11:11:57;4.97;;;2.80;;
3677;SDS011;1855;50.934;6.958;2023-05-03T11:14:23;3.28;;;2.63;;
3677;SDS011;1855;50.934;6.958;2023-05-03T11:16:50;2.88;;;2.50;;
3677;SDS011;1855;50.934;6.958;2023-05-03T11:19:22;4.33;;;2.73;;
3677;SDS011;1855;50.934;6.958;2023-05-03T11:21:50;3.20;;;2.50;;
3677;SDS011;1855;50.934;6.958;2023-05-03T11:24:16;3.80;;;2.55;;
3677;SDS011;1855;50.934;6.958;2023-05-03T11:26:43;3.00;;;2.50;;
3677;SDS011;1855;50.934;6.958;2023-05-03T11:29:10;4.15;;;2.95;;
3677;SDS011;1855;50.934;6.958;2023-05-03T11:31:38;3.35;;;2.80;;
3677;SDS011;1855;50.934;6.958;2023-05-03T11:34:07;3.20;;;2.90;;
3677;SDS011;1855;50.934;6.958;2023-05-03T11:36:36;3.83;;;2.80;;
3677;SDS011;1855;50.934;6.958;2023-05-03T11:39:03;3.85;;;2.90;;
3677;SDS011;1855;50.934;6.958;2023-05-03T11:41:30;2.70;;;2.50;;
3677;SDS011;1855;50.934;6.958;2023-05-03T11:43:57;3.42;;;2.67;;
3677;SDS011;1855;50.934;6.958;2023-05-03T11:46:25;3.63;;;2.97;;
3677;SDS011;1855;50.934;6.958;2023-05-03T11:48:54;4.38;;;2.80;;
3677;SDS011;1855;50.934;6.958;2023-05-03T11:51:21;3.70;;;2.80;;
3677;SDS011;1855;50.934;6.958;2023-05-03T11:53:50;3.67;;;2.80;;
3677;SDS011;1855;50.934;6.958;2023-05-03T11:56:17;3.50;;;2.50;;
3677;SDS011;1855;50.934;6.958;2023-05-03T11:58:48;3.47;;;2.40;;
3677;SDS011;1855;50.934;6.958;2023-05-03T12:01:17;3.40;;;2.38;;
3677;SDS011;1855;50.934;6.958;2023-05-03T12:03:44;3.25;;;2.88;;
3677;SDS011;1855;50.934;6.958;2023-05-03T12:06:13;2.20;;;2.00;;
3677;SDS011;1855;50.934;6.958;2023-05-03T12:08:40;3.70;;;2.25;;
3677;SDS011;1855;50.934;6.958;2023-05-03T12:11:09;4.18;;;2.50;;
3677;SDS011;1855;50.934;6.958;2023-05-03T12:13:36;3.60;;;2.40;;
3677;SDS011;1855;50.934;6.958;2023-05-03T12:16:04;3.53;;;2.00;;
3677;SDS011;1855;50.934;6.958;2023-05-03T12:18:43;3.58;;;2.30;;
3677;SDS011;1855;50.934;6.958;2023-05-03T12:21:11;3.92;;;2.42;;
3677;SDS011;1855;50.934;6.958;2023-05-03T12:23:39;4.25;;;2.38;;
3677;SDS011;1855;50.934;6.958;2023-05-03T12:26:06;2.75;;;2.15;;
3677;SDS011;1855;50.934;6.958;2023-05-03T12:28:34;3.10;;;2.40;;
3677;SDS011;1855;50.934;6.958;2023-05-03T12:31:01;2.83;;;2.30;;
3677;SDS011;1855;50.934;6.958;2023-05-03T12:33:28;3.25;;;2.28;;
3677;SDS011;1855;50.934;6.958;2023-05-03T12:35:55;3.40;;;1.90;;
3677;SDS011;1855;50.934;6.958;2023-05-03T12:38:22;3.60;;;1.90;;
3677;SDS011;1855;50.934;6.958;2023-05-03T12:40:49;4.32;;;2.33;;
3677;SDS011;1855;50.934;6.958;2023-05-03T12:43:18;2.92;;;2.00;;
3677;SDS011;1855;50.934;6.958;2023-05-03T12:45:45;2.50;;;1.90;;
3677;SDS011;1855;50.934;6.958;2023-05-03T12:48:11;3.70;;;2.00;;
3677;SDS011;1855;50.934;6.958;2023-05-03T12:50:38;2.08;;;1.83;;
3677;SDS011;1855;50.934;6.958;2023-05-03T12:53:05;3.85;;;1.73;;
3677;SDS011;1855;50.934;6.958;2023-05-03T12:55:32;2.53;;;1.60;;
3677;SDS011;1855;50.934;6.958;2023-05-03T12:57:59;2.72;;;1.85;;
3677;SDS011;1855;50.934;6.958;2023-05-03T13:00:28;2.00;;;1.70;;
3677;SDS011;1855;50.934;6.958;2023-05-03T13:02:54;2.78;;;1.70;;
3677;SDS011;1855;50.934;6.958;2023-05-03T13:05:21;2.30;;;1.92;;
3677;SDS011;1855;50.934;6.958;2023-05-03T13:07:48;2.80;;;1.70;;
3677;SDS011;1855;50.934;6.958;2023-05-03T13:10:15;3.45;;;1.50;;
3677;SDS011;1855;50.934;6.958;2023-05-03T13:12:43;1.40;;;1.30;;
3677;SDS011;1855;50.934;6.958;2023-05-03T13:15:10;2.00;;;1.60;;
3677;SDS011;1855;50.934;6.958;2023-05-03T13:17:39;2.28;;;1.85;;
3677;SDS011;1855;50.934;6.958;2023-05-03T13:20:06;4.07;;;2.40;;
3677;SDS011;1855;50.934;6.958;2023-05-03T13:22:35;2.40;;;1.60;;
3677;SDS011;1855;50.934;6.958;2023-05-03T13:25:02;2.60;;;1.50;;
3677;SDS011;1855;50.934;6.958;2023-05-03T13:27:29;3.35;;;1.92;;
3677;SDS011;1855;50.934;6.958;2023-05-03T13:29:56;3.60;;;1.70;;
3677;SDS011;1855;50.934;6.958;2023-05-03T13:32:23;2.13;;;1.80;;
3677;SDS011;1855;50.934;6.958;2023-05-03T13:34:51;2.20;;;1.70;;
3677;SDS011;1855;50.934;6.958;2023-05-03T13:37:17;2.50;;;1.40;;
3677;SDS011;1855;50.934;6.958;2023-05-03T13:39:44;3.15;;;1.85;;
3677;SDS011;1855;50.934;6.958;2023-05-03T13:42:11;1.88;;;1.40;;
3677;SDS011;1855;50.934;6.958;2023-05-03T13:44:38;1.77;;;1.42;;
3677;SDS011;1855;50.934;6.958;2023-05-03T13:47:05;1.33;;;1.20;;
3677;SDS011;1855;50.934;6.958;2023-05-03T13:49:31;3.00;;;1.95;;
3677;SDS011;1855;50.934;6.958;2023-05-03T13:52:00;2.20;;;1.40;;
3677;SDS011;1855;50.934;6.958;2023-05-03T13:54:27;3.17;;;1.48;;
3677;SDS011;1855;50.934;6.958;2023-05-03T13:56:54;2.17;;;1.30;;
3677;SDS011;1855;50.934;6.958;2023-05-03T13:59:22;1.60;;;1.23;;
3677;SDS011;1855;50.934;6.958;2023-05-03T14:01:49;2.88;;;1.35;;
3677;SDS011;1855;50.934;6.958;2023-05-03T14:04:16;1.60;;;1.38;;
3677;SDS011;1855;50.934;6.958;2023-05-03T14:06:43;1.40;;;1.30;;
3677;SDS011;1855;50.934;6.958;2023-05-03T14:09:12;1.60;;;1.50;;
3677;SDS011;1855;50.934;6.958;2023-05-03T14:11:39;2.00;;;1.20;;
3677;SDS011;1855;50.934;6.958;2023-05-03T14:14:06;1.80;;;1.00;;
3677;SDS011;1855;50.934;6.958;2023-05-03T14:16:33;1.27;;;1.00;;
3677;SDS011;1855;50.934;6.958;2023-05-03T14:18:59;1.70;;;1.00;;
3677;SDS011;1855;50.934;6.958;2023-05-03T14:21:27;1.33;;;0.85;;
3677;SDS011;1855;50.934;6.958;2023-05-03T14:23:55;2.63;;;1.00;;
3677;SDS011;1855;50.934;6.958;2023-05-03T14:26:23;1.80;;;0.80;;
3677;SDS011;1855;50.934;6.958;2023-05-03T14:28:53;2.15;;;1.20;;
3677;SDS011;1855;50.934;6.958;2023-05-03T14:31:19;1.80;;;1.10;;
3677;SDS011;1855;50.934;6.958;2023-05-03T14:33:46;1.90;;;1.10;;
3677;SDS011;1855;50.934;6.958;2023-05-03T14:36:13;1.20;;;0.80;;
3677;SDS011;1855;50.934;6.958;2023-05-03T14:38:40;1.27;;;1.00;;
3677;SDS011;1855;50.934;6.958;2023-05-03T14:41:06;1.70;;;1.00;;
3677;SDS011;1855;50.934;6.958;2023-05-03T14:43:35;1.48;;;1.00;;
3677;SDS011;1855;50.934;6.958;2023-05-03T14:46:03;0.80;;;0.73;;
3677;SDS011;1855;50.934;6.958;2023-05-03T14:48:29;0.70;;;0.60;;
3677;SDS011;1855;50.934;6.958;2023-05-03T14:50:56;0.90;;;0.82;;
3677;SDS011;1855;50.934;6.958;2023-05-03T14:53:23;2.00;;;1.10;;
3677;SDS011;1855;50.934;6.958;2023-05-03T14:55:50;1.20;;;1.10;;
3677;SDS011;1855;50.934;6.958;2023-05-03T14:58:17;1.80;;;0.90;;
3677;SDS011;1855;50.934;6.958;2023-05-03T15:00:45;0.90;;;0.80;;
3677;SDS011;1855;50.934;6.958;2023-05-03T15:03:12;0.80;;;0.75;;
3677;SDS011;1855;50.934;6.958;2023-05-03T15:05:43;1.30;;;0.70;;
3677;SDS011;1855;50.934;6.958;2023-05-03T15:08:11;1.30;;;1.20;;
3677;SDS011;1855;50.934;6.958;2023-05-03T15:10:39;1.50;;;0.97;;
3677;SDS011;1855;50.934;6.958;2023-05-03T15:13:08;1.50;;;0.85;;
3677;SDS011;1855;50.934;6.958;2023-05-03T15:15:35;1.25;;;0.80;;
3677;SDS011;1855;50.934;6.958;2023-05-03T15:18:03;1.52;;;0.90;;
3677;SDS011;1855;50.934;6.958;2023-05-03T15:20:31;1.33;;;0.90;;
3677;SDS011;1855;50.934;6.958;2023-05-03T15:22:59;1.30;;;0.70;;
3677;SDS011;1855;50.934;6.958;2023-05-03T15:25:27;1.20;;;0.70;;